createdAt,value
2019-03-13T00:01:46.313Z,100872.84
2019-03-13T00:04:16.730Z,100871.27
2019-03-13T00:06:48.083Z,100862.44
2019-03-13T00:09:18.611Z,100865.33
2019-03-13T00:11:49.139Z,100854.49
2019-03-13T00:14:19.974Z,100859.45
2019-03-13T00:16:50.704Z,100862.62
2019-03-13T00:19:21.335Z,100859.66
2019-03-13T00:21:52.000Z,100852.06
2019-03-13T00:24:23.418Z,100847.14
2019-03-13T00:26:55.084Z,100846.27
2019-03-13T00:29:25.287Z,100846.08
2019-03-13T00:31:59.410Z,100840.03
2019-03-13T00:34:28.285Z,100852.19
2019-03-13T00:36:59.222Z,100847.88
2019-03-13T00:39:30.572Z,100852.75
2019-03-13T00:42:00.999Z,100855.26
2019-03-13T00:44:31.631Z,100848.77
2019-03-13T00:47:02.771Z,100844.58
2019-03-13T00:49:33.607Z,100846.02
2019-03-13T00:52:05.360Z,100842.75
2019-03-13T00:54:36.204Z,100839.56
2019-03-13T00:57:07.036Z,100840.48
2019-03-13T00:59:37.564Z,100841.03
2019-03-13T01:02:10.016Z,100840.30
2019-03-13T01:04:42.399Z,100851.63
2019-03-13T01:07:14.261Z,100848.69
2019-03-13T01:09:46.423Z,100845.15
2019-03-13T01:12:16.747Z,100843.73
2019-03-13T01:14:47.483Z,100850.05
2019-03-13T01:17:18.213Z,100858.10
2019-03-13T01:19:49.920Z,100855.94
2019-03-13T01:22:22.033Z,100857.95
2019-03-13T01:24:52.563Z,100857.70
2019-03-13T01:27:24.889Z,100859.66
2019-03-13T01:29:55.666Z,100861.75
2019-03-13T01:32:37.770Z,100859.92
2019-03-13T01:35:10.861Z,100863.38
2019-03-13T01:37:43.630Z,100860.34
2019-03-13T01:40:13.958Z,100867.59
2019-03-13T01:42:44.698Z,100865.82
2019-03-13T01:45:15.316Z,100866.41
2019-03-13T01:47:47.077Z,100875.75
2019-03-13T01:50:17.807Z,100882.03
2019-03-13T01:52:48.546Z,100880.48
2019-03-13T01:55:19.193Z,100882.20
2019-03-13T01:57:50.104Z,100885.99
2019-03-13T02:00:20.734Z,100896.08
2019-03-13T02:02:51.481Z,100887.41
2019-03-13T02:05:23.631Z,100887.83
2019-03-13T02:07:58.256Z,100888.93
2019-03-13T02:10:29.293Z,100891.81
2019-03-13T02:12:59.924Z,100885.42
2019-03-13T02:15:33.733Z,100888.86
2019-03-13T02:18:04.768Z,100891.04
2019-03-13T02:20:35.502Z,100897.00
2019-03-13T02:23:06.232Z,100894.63
2019-03-13T02:25:37.687Z,100891.53
2019-03-13T02:28:08.004Z,100894.48
2019-03-13T02:30:38.648Z,100888.64
2019-03-13T02:33:09.268Z,100892.47
2019-03-13T02:35:40.011Z,100889.52
2019-03-13T02:38:10.634Z,100886.06
2019-03-13T02:40:42.186Z,100892.23
2019-03-13T02:43:13.323Z,100878.05
2019-03-13T02:45:43.746Z,100881.27
2019-03-13T02:48:14.623Z,100890.75
2019-03-13T02:50:46.029Z,100888.48
2019-03-13T02:53:16.663Z,100888.84
2019-03-13T02:55:47.427Z,100893.05
2019-03-13T02:58:20.444Z,100889.38
2019-03-13T03:01:04.430Z,100888.16
2019-03-13T03:03:36.591Z,100885.01
2019-03-13T03:06:07.331Z,100889.38
2019-03-13T03:08:39.591Z,100896.92
2019-03-13T03:11:10.323Z,100900.05
2019-03-13T03:13:41.057Z,100901.98
2019-03-13T03:16:11.797Z,100906.54
2019-03-13T03:18:42.621Z,100912.88
2019-03-13T03:21:13.345Z,100923.59
2019-03-13T03:23:45.465Z,100919.80
2019-03-13T03:26:18.099Z,100922.64
2019-03-13T03:28:49.026Z,100918.55
2019-03-13T03:31:22.112Z,100923.52
2019-03-13T03:34:01.150Z,100928.98
2019-03-13T03:36:31.644Z,100934.30
2019-03-13T03:39:04.813Z,100929.27
2019-03-13T03:41:35.487Z,100925.80
2019-03-13T03:44:06.839Z,100916.96
2019-03-13T03:46:39.615Z,100926.23
2019-03-13T03:49:11.166Z,100921.09
2019-03-13T03:51:42.449Z,100927.20
2019-03-13T03:54:15.090Z,100929.29
2019-03-13T03:56:46.789Z,100924.05
2019-03-13T03:59:17.169Z,100926.45
2019-03-13T04:01:47.816Z,100926.38
2019-03-13T04:04:18.638Z,100934.50
2019-03-13T04:06:49.981Z,100936.58
2019-03-13T04:09:20.817Z,100929.97
2019-03-13T04:11:52.163Z,100931.63
2019-03-13T04:14:22.785Z,100949.45
2019-03-13T04:16:53.428Z,100940.83
2019-03-13T04:19:24.868Z,100938.59
2019-03-13T04:21:55.605Z,100940.25
2019-03-13T04:24:27.049Z,100935.80
2019-03-13T04:26:57.378Z,100943.70
2019-03-13T04:29:28.001Z,100941.72
2019-03-13T04:31:58.837Z,100946.39
2019-03-13T04:34:30.752Z,100945.81
2019-03-13T04:37:01.523Z,100954.80
2019-03-13T04:39:32.467Z,100957.09
2019-03-13T04:42:03.301Z,100962.41
2019-03-13T04:44:34.247Z,100967.50
2019-03-13T04:47:04.974Z,100963.63
2019-03-13T04:49:35.707Z,100979.17
2019-03-13T04:52:07.156Z,100977.91
2019-03-13T04:54:38.405Z,100980.63
2019-03-13T04:57:08.826Z,100985.75
2019-03-13T04:59:39.655Z,100984.30
2019-03-13T05:02:11.110Z,100983.53
2019-03-13T05:04:42.930Z,100985.23
2019-03-13T05:07:14.726Z,100984.08
2019-03-13T05:09:47.224Z,100997.92
2019-03-13T05:12:18.136Z,101002.43
2019-03-13T05:14:48.769Z,101006.80
2019-03-13T05:17:20.111Z,101012.27
2019-03-13T05:19:50.437Z,101009.93
2019-03-13T05:22:22.805Z,101016.75
2019-03-13T05:24:54.255Z,101020.09
2019-03-13T05:27:25.910Z,101027.41
2019-03-13T05:29:58.117Z,101016.61
2019-03-13T05:32:30.026Z,101025.39
2019-03-13T05:35:00.440Z,101013.45
2019-03-13T05:37:32.806Z,101018.49
2019-03-13T05:40:05.607Z,101016.92
2019-03-13T05:42:37.310Z,101024.46
2019-03-13T05:45:08.662Z,101023.67
2019-03-13T05:47:39.143Z,101020.45
2019-03-13T05:50:10.982Z,101011.69
2019-03-13T05:52:41.255Z,101014.69
2019-03-13T05:55:11.962Z,101014.27
2019-03-13T05:57:42.686Z,101017.64
2019-03-13T06:00:15.614Z,101016.68
2019-03-13T06:05:36.286Z,101016.00
2019-03-13T06:08:07.425Z,101021.50
2019-03-13T06:10:37.740Z,101024.66
2019-03-13T06:13:09.604Z,101023.58
2019-03-13T06:15:40.028Z,101022.79
2019-03-13T06:21:04.854Z,101036.92
2019-03-13T06:23:36.682Z,101043.58
2019-03-13T06:26:07.142Z,101043.22
2019-03-13T06:38:28.301Z,101058.72
2019-03-13T06:41:08.462Z,101062.22
2019-03-13T06:43:39.195Z,101059.78
2019-03-13T06:46:09.818Z,101064.81
2019-03-13T06:48:40.913Z,101065.92
2019-03-13T06:51:29.104Z,101065.05
2019-03-13T06:54:16.748Z,101062.17
2019-03-13T06:57:05.404Z,101076.61
2019-03-13T07:00:00.392Z,101073.42
2019-03-13T07:02:49.545Z,101075.03
2019-03-13T07:05:47.647Z,101066.41
2019-03-13T07:08:55.336Z,101073.45
2019-03-13T07:11:43.974Z,101069.45
2019-03-13T07:14:33.656Z,101060.22
2019-03-13T07:17:31.836Z,101065.27
2019-03-13T07:20:21.851Z,101060.39
2019-03-13T07:23:26.234Z,101056.99
2019-03-13T07:26:04.240Z,101052.38
2019-03-13T07:28:52.698Z,101052.17
2019-03-13T07:31:28.132Z,101049.06
2019-03-13T07:34:03.568Z,101057.55
2019-03-13T07:36:36.905Z,101061.97
2019-03-13T07:39:21.753Z,101059.59
2019-03-13T07:42:11.519Z,101059.08
2019-03-13T07:44:46.953Z,101062.34
2019-03-13T07:47:36.315Z,101056.90
2019-03-13T07:50:28.142Z,101057.27
2019-03-13T07:53:03.173Z,101049.81
2019-03-13T07:55:35.241Z,101061.88
2019-03-13T07:58:23.720Z,101052.77
2019-03-13T08:00:56.562Z,101054.08
2019-03-13T08:03:45.837Z,101042.14
2019-03-13T08:06:33.975Z,101050.50
2019-03-13T08:09:08.192Z,101053.09
2019-03-13T08:11:44.247Z,101042.73
2019-03-13T08:14:24.293Z,101039.63
2019-03-13T08:17:03.117Z,101048.88
2019-03-13T08:19:40.709Z,101045.72
2019-03-13T08:22:29.266Z,101050.56
2019-03-13T08:25:18.224Z,101039.77
2019-03-13T08:27:54.074Z,101046.83
2019-03-13T08:30:35.355Z,101046.78
2019-03-13T08:33:25.644Z,101044.42
2019-03-13T08:36:16.344Z,101041.53
2019-03-13T08:38:54.725Z,101047.63
2019-03-13T08:41:36.044Z,101036.13
2019-03-13T08:44:17.822Z,101048.16
2019-03-13T08:47:06.889Z,101047.64
2019-03-13T08:49:41.823Z,101052.05
2019-03-13T08:52:14.294Z,101047.93
2019-03-13T08:54:46.465Z,101045.55
2019-03-13T08:57:21.800Z,101048.47
2019-03-13T09:00:09.131Z,101037.73
2019-03-13T09:02:59.930Z,101035.30
2019-03-13T09:05:44.066Z,101040.66
2019-03-13T09:08:34.055Z,101043.41
2019-03-13T09:11:12.991Z,101038.33
2019-03-13T09:13:52.019Z,101041.67
2019-03-13T09:16:30.086Z,101042.36
2019-03-13T09:19:02.278Z,101045.09
2019-03-13T09:21:37.309Z,101042.06
2019-03-13T09:24:18.769Z,101049.31
2019-03-13T09:26:53.635Z,101052.55
2019-03-13T09:29:39.063Z,101051.00
2019-03-13T09:32:17.212Z,101047.08
2019-03-13T09:34:49.276Z,101053.16
2019-03-13T09:37:21.839Z,101059.23
2019-03-13T09:39:56.675Z,101052.16
2019-03-13T09:42:41.126Z,101047.33
2019-03-13T09:45:19.347Z,101049.33
2019-03-13T09:47:51.503Z,101046.34
2019-03-13T09:50:27.567Z,101041.02
2019-03-13T09:53:06.794Z,101045.48
2019-03-13T09:55:55.132Z,101040.91
2019-03-13T09:58:46.053Z,101056.53
2019-03-13T10:01:34.592Z,101062.34
2019-03-13T10:04:06.769Z,101056.99
2019-03-13T10:06:44.969Z,101059.69
2019-03-13T10:09:23.173Z,101047.92
2019-03-13T10:12:11.415Z,101046.61
2019-03-13T10:14:50.752Z,101042.03
2019-03-13T10:17:23.028Z,101044.32
2019-03-13T10:19:56.614Z,101045.08
2019-03-13T10:22:47.425Z,101041.17
2019-03-13T10:25:29.627Z,101044.24
2019-03-13T10:28:03.257Z,101043.38
2019-03-13T10:30:35.491Z,101043.79
2019-03-13T10:33:07.773Z,101040.82
2019-03-13T10:35:57.745Z,101033.36
2019-03-13T10:38:48.036Z,101027.93
2019-03-13T10:41:36.889Z,101026.73
2019-03-13T10:44:28.814Z,101024.55
2019-03-13T10:47:00.989Z,101033.16
2019-03-13T10:49:36.008Z,101035.05
2019-03-13T10:52:20.267Z,101031.96
2019-03-13T10:55:08.211Z,101031.05
2019-03-13T10:57:40.375Z,100979.52
2019-03-13T11:00:16.360Z,101021.49
2019-03-13T11:02:50.984Z,101018.17
2019-03-13T11:05:23.986Z,101037.71
2019-03-13T11:07:56.401Z,101053.28
2019-03-13T11:10:31.454Z,101046.97
2019-03-13T11:13:15.383Z,101046.38
2019-03-13T11:16:05.772Z,101051.25
2019-03-13T11:18:51.670Z,101054.54
2019-03-13T11:21:27.527Z,101056.72
2019-03-13T11:24:03.479Z,101051.23
2019-03-13T11:26:41.580Z,101054.95
2019-03-13T11:29:22.354Z,101053.13
2019-03-13T11:32:06.445Z,101058.70
2019-03-13T11:35:10.024Z,101059.32
2019-03-13T11:38:14.573Z,101061.14
2019-03-13T11:41:33.224Z,101058.77
2019-03-13T11:44:32.119Z,101049.95
2019-03-13T11:47:17.556Z,101047.08
2019-03-13T11:50:06.565Z,101043.55
2019-03-13T11:52:40.007Z,101040.66
2019-03-13T11:55:20.726Z,101042.06
2019-03-13T11:58:06.059Z,101043.86
2019-03-13T12:00:54.707Z,101049.40
2019-03-13T12:03:33.728Z,101049.17
2019-03-13T12:06:09.166Z,101015.19
2019-03-13T12:08:47.485Z,101067.62
2019-03-13T12:11:25.978Z,101064.52
2019-03-13T12:14:01.436Z,101062.06
2019-03-13T12:16:34.729Z,101065.55
2019-03-13T12:19:09.263Z,101069.25
2019-03-13T12:21:44.483Z,101074.91
2019-03-13T12:24:34.567Z,101070.25
2019-03-13T12:27:23.534Z,101083.80
2019-03-13T12:30:07.572Z,101075.16
2019-03-13T12:32:39.362Z,101074.87
2019-03-13T12:35:29.730Z,101080.72
2019-03-13T12:38:05.594Z,101082.84
2019-03-13T12:40:54.332Z,101077.81
2019-03-13T12:43:27.114Z,101084.45
2019-03-13T12:46:16.378Z,101084.33
2019-03-13T12:48:51.516Z,101077.67
2019-03-13T12:51:23.689Z,101084.50
2019-03-13T12:53:59.737Z,101074.82
2019-03-13T12:56:37.847Z,101069.34
2019-03-13T12:59:11.357Z,101068.55
2019-03-13T13:02:00.842Z,101059.15
2019-03-13T13:04:37.182Z,101063.73
2019-03-13T13:07:10.834Z,101072.97
2019-03-13T13:09:58.616Z,101077.48
2019-03-13T13:12:31.905Z,101081.37
2019-03-13T13:15:07.438Z,101065.88
2019-03-13T13:17:56.167Z,101067.05
2019-03-13T13:20:29.602Z,101071.51
2019-03-13T13:23:01.263Z,101063.05
2019-03-13T13:25:31.686Z,101054.94
2019-03-13T13:28:02.418Z,101062.56
2019-03-13T13:30:34.797Z,101062.05
2019-03-13T13:33:07.041Z,101063.25
2019-03-13T13:35:39.855Z,101063.56
2019-03-13T13:38:10.985Z,101064.37
2019-03-13T13:40:41.654Z,101061.98
2019-03-13T13:43:13.713Z,101063.37
2019-03-13T13:45:47.109Z,101062.20
2019-03-13T13:48:17.499Z,101062.19
2019-03-13T13:50:49.275Z,101032.27
2019-03-13T13:53:20.490Z,101072.64
2019-03-13T13:55:51.026Z,101072.23
2019-03-13T13:58:22.052Z,101079.27
2019-03-13T14:00:53.092Z,101092.58
2019-03-13T14:03:23.320Z,101071.45
2019-03-13T14:05:57.128Z,101084.48
2019-03-13T14:08:29.201Z,101072.92
2019-03-13T14:11:00.049Z,101073.38
2019-03-13T14:13:32.399Z,101068.83
2019-03-13T14:16:03.128Z,101071.89
2019-03-13T14:18:34.475Z,101067.33
2019-03-13T14:21:05.516Z,101078.05
2019-03-13T14:23:36.354Z,101086.30
2019-03-13T14:26:07.082Z,101086.05
2019-03-13T14:28:38.115Z,101090.92
2019-03-13T14:31:08.439Z,101093.02
2019-03-13T14:33:39.176Z,101083.96
2019-03-13T14:36:11.542Z,101081.59
2019-03-13T14:38:42.279Z,101099.34
2019-03-13T14:41:13.025Z,101092.04
2019-03-13T14:43:43.642Z,101091.78
2019-03-13T14:46:13.965Z,101103.05
2019-03-13T14:48:44.489Z,101101.73
2019-03-13T14:51:15.838Z,101108.98
2019-03-13T14:53:46.466Z,101109.85
2019-03-13T14:56:16.999Z,101112.28
2019-03-13T14:58:48.146Z,101108.47
2019-03-13T15:01:19.383Z,101104.19
2019-03-13T15:03:49.911Z,101103.95
2019-03-13T15:06:20.549Z,101106.36
2019-03-13T15:08:51.065Z,101105.48
2019-03-13T15:11:21.509Z,101116.59
2019-03-13T15:13:52.537Z,101114.02
2019-03-13T15:16:24.306Z,101115.20
2019-03-13T15:18:55.228Z,101116.41
2019-03-13T15:21:26.996Z,101118.75
2019-03-13T15:23:58.626Z,101115.22
2019-03-13T15:26:28.966Z,101121.41
2019-03-13T15:29:00.613Z,101128.36
2019-03-13T15:31:31.677Z,101128.66
2019-03-13T15:34:02.592Z,101125.64
2019-03-13T15:36:33.233Z,101130.83
2019-03-13T15:39:06.595Z,101125.92
2019-03-13T15:41:38.616Z,101139.32
2019-03-13T15:44:09.729Z,101141.88
2019-03-13T15:46:40.766Z,101149.01
2019-03-13T15:49:16.700Z,101152.78
2019-03-13T15:51:48.729Z,101158.70
2019-03-13T15:54:19.625Z,101153.50
2019-03-13T15:56:50.969Z,101154.36
2019-03-13T15:59:21.492Z,101159.67
2019-03-13T16:01:55.549Z,101159.56
2019-03-13T16:04:25.931Z,101164.89
2019-03-13T16:06:56.661Z,101168.19
2019-03-13T16:09:27.715Z,101161.36
2019-03-13T16:11:58.543Z,101162.44
2019-03-13T16:14:29.262Z,101166.88
2019-03-13T16:17:00.001Z,101166.69
2019-03-13T16:19:32.778Z,101169.39
2019-03-13T16:22:04.664Z,101172.72
2019-03-13T16:24:36.902Z,101176.73
2019-03-13T16:27:07.952Z,101177.40
2019-03-13T16:29:38.676Z,101176.73
2019-03-13T16:32:12.590Z,101171.69
2019-03-13T16:34:43.627Z,101169.88
2019-03-13T16:37:14.871Z,101178.66
2019-03-13T16:39:45.294Z,101183.94
2019-03-13T16:42:17.251Z,101191.14
2019-03-13T16:44:47.586Z,101188.36
2019-03-13T16:47:19.645Z,101189.64
2019-03-13T16:49:50.063Z,101191.38
2019-03-13T16:52:20.804Z,101191.94
2019-03-13T16:54:52.247Z,101200.16
2019-03-13T16:57:23.020Z,101206.92
2019-03-13T17:00:00.571Z,101212.06
2019-03-13T17:02:26.081Z,101215.11
2019-03-13T17:04:56.415Z,101220.55
2019-03-13T17:07:28.584Z,101215.31
2019-03-13T17:09:59.110Z,101222.57
2019-03-13T17:12:30.951Z,101222.87
2019-03-13T17:15:01.524Z,101234.13
2019-03-13T17:17:34.606Z,101229.56
2019-03-13T17:20:08.488Z,101236.44
2019-03-13T17:22:39.313Z,101239.23
2019-03-13T17:25:13.210Z,101235.33
2019-03-13T17:27:43.541Z,101235.48
2019-03-13T17:30:19.506Z,101236.77
2019-03-13T17:32:52.384Z,101239.14
2019-03-13T17:35:25.065Z,101236.22
2019-03-13T17:37:57.039Z,101233.12
2019-03-13T17:40:32.124Z,101242.91
2019-03-13T17:43:02.408Z,101240.53
2019-03-13T17:45:33.951Z,101243.47
2019-03-13T17:48:06.090Z,101244.96
2019-03-13T17:50:38.161Z,101241.52
2019-03-13T17:53:08.894Z,101238.67
2019-03-13T17:55:40.138Z,101241.37
2019-03-13T17:58:10.871Z,101239.85
2019-03-13T18:00:52.889Z,101245.16
2019-03-13T18:03:24.773Z,101241.38
2019-03-13T18:05:55.258Z,101242.02
2019-03-13T18:08:26.289Z,101252.57
2019-03-13T18:10:59.454Z,101257.69
2019-03-13T18:13:29.809Z,101256.50
2019-03-13T18:16:00.433Z,101258.52
2019-03-13T18:18:31.061Z,101260.89
2019-03-13T18:21:01.665Z,101265.28
2019-03-13T18:23:32.630Z,101266.82
2019-03-13T18:26:03.379Z,101260.06
2019-03-13T18:28:34.101Z,101259.70
2019-03-13T18:31:04.730Z,101265.02
2019-03-13T18:33:44.594Z,101256.70
2019-03-13T18:36:15.718Z,101261.27
2019-03-13T18:38:46.554Z,101266.75
2019-03-13T18:41:18.918Z,101261.95
2019-03-13T18:43:49.343Z,101266.89
2019-03-13T18:46:21.007Z,101268.47
2019-03-13T18:48:51.322Z,101268.56
2019-03-13T18:51:22.270Z,101267.48
2019-03-13T18:53:53.502Z,101272.09
2019-03-13T18:56:26.599Z,101273.12
2019-03-13T18:58:59.894Z,101277.56
2019-03-13T19:01:30.931Z,101275.33
2019-03-13T19:04:02.426Z,101274.46
2019-03-13T19:06:34.437Z,101268.56
2019-03-13T19:09:06.008Z,101271.22
2019-03-13T19:11:36.852Z,101279.95
2019-03-13T19:14:07.359Z,101282.97
2019-03-13T19:16:37.689Z,101275.58
2019-03-13T19:19:09.635Z,101284.50
2019-03-13T19:21:40.579Z,101282.77
2019-03-13T19:24:12.433Z,101287.23
2019-03-13T19:26:43.092Z,101283.78
2019-03-13T19:29:14.106Z,101292.25
2019-03-13T19:31:44.841Z,101283.25
2019-03-13T19:34:15.569Z,101285.00
2019-03-13T19:36:47.229Z,101283.55
2019-03-13T19:39:18.360Z,101290.72
2019-03-13T19:41:48.991Z,101295.41
2019-03-13T19:44:19.731Z,101298.79
2019-03-13T19:46:51.380Z,101295.02
2019-03-13T19:49:23.037Z,101297.02
2019-03-13T19:51:54.077Z,101296.75
2019-03-13T19:54:29.620Z,101287.73
2019-03-13T19:56:59.975Z,101292.11
2019-03-13T19:59:30.464Z,101292.88
2019-03-13T20:02:02.220Z,101297.58
2019-03-13T20:04:33.062Z,101300.16
2019-03-13T20:07:04.830Z,101304.77
2019-03-13T20:09:35.239Z,101306.72
2019-03-13T20:12:05.980Z,101299.80
2019-03-13T20:14:36.808Z,101295.84
2019-03-13T20:17:07.544Z,101303.54
2019-03-13T20:19:38.793Z,101301.94
2019-03-13T20:22:11.674Z,101303.35
2019-03-13T20:24:42.509Z,101311.91
2019-03-13T20:27:14.465Z,101309.84
2019-03-13T20:29:45.201Z,101307.38
2019-03-13T20:32:17.256Z,101308.88
2019-03-13T20:34:48.837Z,101314.31
2019-03-13T20:37:20.884Z,101316.03
2019-03-13T20:39:53.046Z,101311.51
2019-03-13T20:42:23.975Z,101318.56
2019-03-13T20:44:56.050Z,101319.69
2019-03-13T20:47:26.466Z,101321.19
2019-03-13T20:49:57.511Z,101324.68
2019-03-13T20:52:28.954Z,101325.30
2019-03-13T20:54:59.175Z,101322.23
2019-03-13T20:57:29.916Z,101319.39
2019-03-13T21:00:00.545Z,101313.44
2019-03-13T21:02:31.177Z,101319.50
2019-03-13T21:05:02.718Z,101316.64
2019-03-13T21:07:33.350Z,101315.53
2019-03-13T21:10:05.243Z,101320.88
2019-03-13T21:12:36.665Z,101320.01
2019-03-13T21:15:13.335Z,101323.73
2019-03-13T21:17:44.886Z,101321.50
2019-03-13T21:20:16.743Z,101325.71
2019-03-13T21:22:46.966Z,101325.71
2019-03-13T21:25:19.844Z,101324.87
2019-03-13T21:27:50.424Z,101327.09
2019-03-13T21:30:27.257Z,101327.71
2019-03-13T21:32:58.199Z,101320.05
2019-03-13T21:35:30.355Z,101322.38
2019-03-13T21:38:00.811Z,101321.52
2019-03-13T21:40:32.477Z,101328.09
2019-03-13T21:43:03.556Z,101328.97
2019-03-13T21:45:41.211Z,101324.51
2019-03-13T21:48:07.195Z,101330.09
2019-03-13T21:50:38.738Z,101325.37
2019-03-13T21:53:08.967Z,101323.14
2019-03-13T21:55:39.697Z,101329.94
2019-03-13T21:58:10.534Z,101321.88
2019-03-13T22:00:42.795Z,101316.45
2019-03-13T22:03:13.332Z,101323.23
2019-03-13T22:05:44.268Z,101323.37
2019-03-13T22:08:15.608Z,101317.91
2019-03-13T22:10:47.062Z,101321.11
2019-03-13T22:13:18.128Z,101313.19
2019-03-13T22:15:49.961Z,101318.64
2019-03-13T22:18:20.663Z,101314.42
2019-03-13T22:20:51.316Z,101317.64
2019-03-13T22:23:38.537Z,101313.81
2019-03-13T22:26:27.802Z,101314.31
2019-03-13T22:28:58.443Z,101316.66
2019-03-13T22:31:29.170Z,101325.18
2019-03-13T22:33:59.487Z,101322.42
2019-03-13T22:36:31.143Z,101314.38
2019-03-13T22:39:02.571Z,101312.80
2019-03-13T22:41:36.572Z,101305.74
2019-03-13T22:44:05.897Z,101312.80
2019-03-13T22:46:36.129Z,101318.99
2019-03-13T22:49:06.856Z,101320.56
2019-03-13T22:51:37.897Z,101317.23
2019-03-13T22:54:10.475Z,101311.28
2019-03-13T22:56:41.305Z,101315.49
2019-03-13T22:59:13.468Z,101315.09
2019-03-13T23:01:46.656Z,101320.53
2019-03-13T23:04:17.499Z,101318.55
2019-03-13T23:06:48.022Z,101319.41
2019-03-13T23:09:19.170Z,101314.84
2019-03-13T23:11:51.224Z,101313.10
2019-03-13T23:14:21.554Z,101312.86
2019-03-13T23:16:52.280Z,101314.47
2019-03-13T23:19:23.528Z,101313.56
2019-03-13T23:21:53.854Z,101315.58
2019-03-13T23:24:24.177Z,101313.97
2019-03-13T23:26:55.254Z,101310.47
2019-03-13T23:29:25.948Z,101308.98
2019-03-13T23:31:56.364Z,101318.63
2019-03-13T23:34:27.030Z,101308.27
2019-03-13T23:36:58.448Z,101307.74
2019-03-13T23:39:28.878Z,101299.53
2019-03-13T23:41:59.608Z,101304.23
2019-03-13T23:44:30.240Z,101311.66
2019-03-13T23:47:00.966Z,101303.91
2019-03-13T23:49:33.855Z,101299.33
2019-03-13T23:52:04.688Z,101300.89
2019-03-13T23:54:36.467Z,101305.59
2019-03-13T23:57:06.952Z,101310.66
2019-03-13T23:59:37.497Z,101315.19
